createdAt,value
2022-12-09T00:02:15.187Z,13.57
2022-12-09T00:04:44.946Z,12.48
2022-12-09T00:07:14.087Z,12.80
2022-12-09T00:09:44.577Z,11.73
2022-12-09T00:12:14.200Z,12.52
2022-12-09T00:14:44.716Z,11.55
2022-12-09T00:17:14.246Z,11.82
2022-12-09T00:19:43.881Z,11.73
2022-12-09T00:22:14.011Z,12.23
2022-12-09T00:24:43.199Z,12.20
2022-12-09T00:27:12.244Z,11.75
2022-12-09T00:29:41.999Z,12.80
2022-12-09T00:32:12.550Z,13.05
2022-12-09T00:34:42.421Z,13.13
2022-12-09T00:37:12.216Z,11.25
2022-12-09T00:39:42.329Z,11.88
2022-12-09T00:42:11.844Z,12.48
2022-12-09T00:44:41.367Z,12.73
2022-12-09T00:47:10.628Z,12.55
2022-12-09T00:49:41.592Z,12.88
2022-12-09T00:52:11.275Z,12.63
2022-12-09T00:54:40.725Z,11.88
2022-12-09T00:57:10.121Z,13.05
2022-12-09T00:59:39.518Z,13.30
2022-12-09T04:34:40.111Z,9.35
2022-12-09T04:37:09.984Z,9.27
2022-12-09T04:39:42.036Z,9.38
2022-12-09T04:42:11.726Z,9.38
2022-12-09T04:44:42.488Z,8.57
2022-12-09T04:47:12.156Z,8.63
2022-12-09T04:49:43.071Z,9.45
2022-12-09T04:52:12.549Z,7.60
2022-12-09T04:54:42.350Z,6.75
2022-12-09T04:57:12.381Z,7.20
2022-12-09T04:59:42.026Z,8.38
2022-12-09T05:02:24.023Z,7.75
2022-12-09T05:04:54.933Z,8.38
2022-12-09T05:07:25.421Z,8.40
2022-12-09T05:09:55.407Z,8.85
2022-12-09T05:12:25.297Z,8.27
2022-12-09T05:14:55.206Z,6.97
2022-12-09T05:17:25.406Z,7.18
2022-12-09T05:19:55.868Z,8.07
2022-12-09T05:22:25.630Z,7.32
2022-12-09T05:24:56.004Z,7.97
2022-12-09T05:27:26.057Z,8.23
2022-12-09T05:29:55.446Z,6.65
2022-12-09T05:32:24.750Z,7.78
2022-12-09T05:34:56.414Z,8.20
2022-12-09T05:37:25.730Z,7.10
2022-12-09T05:39:55.238Z,8.25
2022-12-09T05:42:25.312Z,7.63
2022-12-09T05:44:55.276Z,7.90
2022-12-09T05:47:28.309Z,8.73
2022-12-09T05:50:04.380Z,7.57
2022-12-09T05:52:37.833Z,7.30
2022-12-09T05:55:08.834Z,8.73
2022-12-09T05:57:38.758Z,7.60
2022-12-09T06:00:10.012Z,7.70
2022-12-09T06:02:42.809Z,6.88
2022-12-09T06:05:16.324Z,8.18
2022-12-09T06:07:46.503Z,6.97
2022-12-09T06:10:17.527Z,9.30
2022-12-09T06:12:50.682Z,7.10
2022-12-09T06:15:21.781Z,8.05
2022-12-09T06:17:53.070Z,8.35
2022-12-09T06:20:23.956Z,7.95
2022-12-09T06:22:53.564Z,8.43
2022-12-09T06:25:25.383Z,8.10
2022-12-09T06:27:55.223Z,8.57
2022-12-09T06:30:25.284Z,8.15
2022-12-09T06:32:55.082Z,8.68
2022-12-09T06:35:26.374Z,9.25
2022-12-09T06:37:56.509Z,8.68
2022-12-09T06:40:26.559Z,9.70
2022-12-09T06:42:56.593Z,9.13
2022-12-09T06:45:26.430Z,9.23
2022-12-09T06:47:56.517Z,9.82
2022-12-09T06:50:27.931Z,9.07
2022-12-09T06:52:57.966Z,10.63
2022-12-09T06:55:28.664Z,10.15
2022-12-09T06:58:00.489Z,10.88
2022-12-09T07:00:30.304Z,11.27
2022-12-09T07:03:00.689Z,11.20
2022-12-09T07:05:33.385Z,10.82
2022-12-09T13:25:06.057Z,17.08
2022-12-09T13:50:06.237Z,18.42
2022-12-09T14:20:07.276Z,32.35
2022-12-09T14:45:08.207Z,15.38
2022-12-09T15:10:06.450Z,14.10
2022-12-09T15:35:07.010Z,14.43
2022-12-09T16:00:11.430Z,19.92
2022-12-09T16:25:14.505Z,16.35
2022-12-09T16:55:05.947Z,19.10
2022-12-09T18:25:04.988Z,20.23
2022-12-09T18:55:03.986Z,23.67
